Time;durP1;ratioP1;P1;durP2;ratioP2;P2;SDS_P1;SDS_P2;PMS_P1;PMS_P2;Temp;Humidity;BMP_temperature;BMP_pressure;BME280_temperature;BME280_humidity;BME280_pressure;Samples;Min_cycle;Max_cycle;Signal;HPM_P1;HPM_P2
2023/04/27 00:00:44;;;;;;;0.10;0.10;;;5.20;99.90;;;;;;5096498;28;20024;-72
2023/04/27 00:03:11;;;;;;;0.38;0.38;;;5.30;99.90;;;;;;5096176;28;20028;-72
2023/04/27 00:05:37;;;;;;;0.03;0.03;;;5.20;99.90;;;;;;5097051;28;20063;-72
2023/04/27 00:08:06;;;;;;;0.00;0.00;;;5.00;99.90;;;;;;5092254;28;20081;-73
2023/04/27 00:10:32;;;;;;;0.10;0.10;;;5.00;99.90;;;;;;5088077;28;20028;-72
2023/04/27 00:12:58;;;;;;;1.75;1.75;;;5.00;99.90;;;;;;5085760;28;20595;-71
2023/04/27 00:15:24;;;;;;;0.10;0.10;;;5.00;99.90;;;;;;5085627;28;20030;-72
2023/04/27 00:17:50;;;;;;;0.00;0.00;;;5.00;99.90;;;;;;5084864;28;20607;-73
2023/04/27 00:20:17;;;;;;;0.00;0.00;;;5.00;99.90;;;;;;5080173;28;20088;-72
2023/04/27 00:22:43;;;;;;;0.00;0.00;;;4.90;99.90;;;;;;5081846;28;20028;-72
2023/04/27 00:25:09;;;;;;;0.10;0.10;;;4.80;99.90;;;;;;5080442;28;20034;-75
2023/04/27 00:27:35;;;;;;;0.20;0.20;;;4.80;99.90;;;;;;5081675;28;20024;-72
2023/04/27 00:30:01;;;;;;;0.15;0.15;;;4.70;99.90;;;;;;5080975;28;20084;-72
2023/04/27 00:32:27;;;;;;;0.10;0.10;;;4.60;99.90;;;;;;5081481;28;20560;-72
2023/04/27 00:34:52;;;;;;;0.10;0.10;;;4.70;99.90;;;;;;5091039;28;20510;-72
2023/04/27 00:37:18;;;;;;;0.10;0.10;;;4.60;99.90;;;;;;5090246;28;20045;-72
2023/04/27 00:39:44;;;;;;;0.38;0.38;;;4.50;99.90;;;;;;5089842;28;20479;-72
2023/04/27 00:42:12;;;;;;;0.10;0.10;;;4.50;99.90;;;;;;5089923;28;20027;-73
2023/04/27 00:44:37;;;;;;;0.90;0.90;;;4.40;99.90;;;;;;5089603;28;20050;-72
2023/04/27 00:47:04;;;;;;;0.10;0.10;;;4.40;99.90;;;;;;5085960;28;20031;-71
2023/04/27 00:49:31;;;;;;;0.10;0.10;;;4.30;99.90;;;;;;5091710;28;20586;-73
2023/04/27 00:51:57;;;;;;;0.10;0.10;;;4.30;99.90;;;;;;5089821;28;20024;-75
2023/04/27 00:54:23;;;;;;;0.10;0.10;;;4.30;99.90;;;;;;5086735;28;20055;-73
2023/04/27 00:56:50;;;;;;;0.10;0.10;;;4.20;99.90;;;;;;5085100;28;20024;-73
2023/04/27 00:59:17;;;;;;;0.10;0.10;;;4.20;99.90;;;;;;5083340;28;20161;-74
2023/04/27 01:01:43;;;;;;;0.10;0.10;;;4.10;99.90;;;;;;5086331;28;20023;-73
2023/04/27 01:04:09;;;;;;;0.20;0.20;;;4.10;99.90;;;;;;5087083;28;20024;-74
2023/04/27 01:06:34;;;;;;;0.10;0.10;;;4.10;99.90;;;;;;5085264;28;20028;-73
2023/04/27 01:09:00;;;;;;;0.10;0.10;;;4.10;99.90;;;;;;5085665;28;20020;-73
2023/04/27 01:11:28;;;;;;;0.00;0.00;;;4.10;99.90;;;;;;5086862;28;20077;-73
2023/04/27 01:13:55;;;;;;;0.10;0.10;;;4.20;99.90;;;;;;5085624;28;20016;-71
2023/04/27 01:16:21;;;;;;;0.10;0.10;;;6.40;99.90;;;;;;5086952;28;20020;-72
2023/04/27 01:18:47;;;;;;;0.10;0.10;;;4.30;99.90;;;;;;5088988;28;20028;-72
2023/04/27 01:21:13;;;;;;;0.05;0.05;;;4.30;99.90;;;;;;5099791;28;20623;-73
2023/04/27 01:23:38;;;;;;;0.00;0.00;;;5.20;99.90;;;;;;5094792;28;20031;-72
2023/04/27 01:26:04;;;;;;;0.08;0.08;;;4.40;99.90;;;;;;5086582;28;20581;-72
2023/04/27 01:28:30;;;;;;;0.00;0.00;;;4.40;99.90;;;;;;5089998;28;20048;-71
2023/04/27 01:30:56;;;;;;;0.00;0.00;;;4.50;99.90;;;;;;5089457;28;20020;-71
2023/04/27 01:33:22;;;;;;;0.10;0.10;;;4.50;99.90;;;;;;5084664;28;20036;-72
2023/04/27 01:35:47;;;;;;;0.13;0.13;;;4.50;99.90;;;;;;5082979;28;20024;-71
2023/04/27 01:38:13;;;;;;;0.10;0.10;;;4.60;99.90;;;;;;5082044;28;20024;-72
2023/04/27 01:40:39;;;;;;;0.10;0.10;;;4.60;99.90;;;;;;5079481;28;20173;-72
2023/04/27 01:43:05;;;;;;;0.10;0.10;;;4.60;99.90;;;;;;5079033;28;20514;-73
2023/04/27 01:45:31;;;;;;;0.10;0.10;;;4.60;99.90;;;;;;5079183;28;20024;-72
2023/04/27 01:47:57;;;;;;;0.10;0.10;;;4.60;99.90;;;;;;5080371;28;20060;-70
2023/04/27 01:50:22;;;;;;;0.10;0.10;;;4.70;99.90;;;;;;5081312;28;20066;-74
2023/04/27 01:52:48;;;;;;;0.10;0.10;;;4.80;99.90;;;;;;5081267;28;20058;-72
2023/04/27 01:55:14;;;;;;;0.30;0.30;;;4.70;99.90;;;;;;5081174;28;20024;-74
2023/04/27 01:57:39;;;;;;;0.10;0.10;;;4.70;99.90;;;;;;5082011;28;20643;-73
2023/04/27 02:00:06;;;;;;;0.10;0.10;;;4.60;99.90;;;;;;5080025;28;20041;-73
2023/04/27 02:02:33;;;;;;;1.63;1.58;;;4.70;99.90;;;;;;5077812;28;20032;-74
2023/04/27 02:04:59;;;;;;;0.10;0.10;;;4.80;99.90;;;;;;5083343;28;20048;-72
2023/04/27 02:07:25;;;;;;;0.10;0.10;;;4.80;99.90;;;;;;5090194;28;20527;-72
2023/04/27 02:09:50;;;;;;;0.10;0.10;;;4.70;99.90;;;;;;5089833;28;20029;-72
2023/04/27 02:12:16;;;;;;;0.10;0.10;;;4.60;99.90;;;;;;5092401;28;20091;-72
2023/04/27 02:14:42;;;;;;;0.10;0.10;;;4.70;99.90;;;;;;5089358;28;20747;-72
2023/04/27 02:17:07;;;;;;;0.10;0.10;;;4.50;99.90;;;;;;5089354;28;20027;-72
2023/04/27 02:19:33;;;;;;;0.10;0.10;;;4.50;99.90;;;;;;5083691;28;20052;-72
2023/04/27 02:21:59;;;;;;;0.00;0.00;;;4.40;99.90;;;;;;5078922;28;20062;-71
2023/04/27 02:24:25;;;;;;;0.10;0.10;;;4.40;99.90;;;;;;5081018;28;20016;-71
2023/04/27 02:26:50;;;;;;;0.10;0.10;;;4.30;99.90;;;;;;5079092;28;20031;-71
2023/04/27 02:29:17;;;;;;;0.10;0.10;;;4.20;99.90;;;;;;5077160;28;20063;-71
2023/04/27 02:31:43;;;;;;;0.03;0.03;;;4.20;99.90;;;;;;5079074;28;20105;-73
2023/04/27 02:34:08;;;;;;;0.00;0.00;;;4.20;99.90;;;;;;5078720;28;20694;-72
2023/04/27 02:36:34;;;;;;;5.40;5.15;;;4.20;99.90;;;;;;5078951;28;20028;-71
2023/04/27 02:39:00;;;;;;;0.10;0.10;;;4.10;99.90;;;;;;5078732;28;20020;-71
2023/04/27 02:41:27;;;;;;;0.20;0.20;;;4.10;99.90;;;;;;5079848;28;20051;-73
2023/04/27 02:43:53;;;;;;;0.10;0.10;;;4.10;99.90;;;;;;5077282;28;20055;-72
2023/04/27 02:46:18;;;;;;;0.10;0.10;;;5.50;99.90;;;;;;5077241;28;20090;-72
2023/04/27 02:48:45;;;;;;;0.10;0.10;;;4.10;99.90;;;;;;5079621;28;20224;-72
2023/04/27 02:51:11;;;;;;;0.10;0.10;;;4.20;99.90;;;;;;5080816;28;20712;-72
2023/04/27 02:53:37;;;;;;;0.10;0.10;;;4.20;99.90;;;;;;5082393;28;20036;-73
2023/04/27 02:56:03;;;;;;;0.10;0.10;;;4.10;99.90;;;;;;5082506;28;20109;-72
2023/04/27 02:58:28;;;;;;;0.08;0.08;;;4.10;99.90;;;;;;5082821;28;20556;-72
2023/04/27 03:00:55;;;;;;;0.10;0.10;;;4.00;99.90;;;;;;5081332;28;20036;-71
2023/04/27 03:03:22;;;;;;;0.10;0.10;;;4.00;99.90;;;;;;5081507;28;20023;-71
2023/04/27 03:05:47;;;;;;;0.20;0.20;;;3.90;99.90;;;;;;5083769;28;20020;-73
2023/04/27 03:08:13;;;;;;;0.10;0.10;;;3.90;99.90;;;;;;5086238;28;20012;-72
2023/04/27 03:10:39;;;;;;;0.10;0.10;;;3.80;99.90;;;;;;5087602;28;20502;-73
2023/04/27 03:13:05;;;;;;;0.10;0.10;;;3.80;99.90;;;;;;5086785;28;20054;-72
2023/04/27 03:15:31;;;;;;;0.10;0.10;;;3.70;99.90;;;;;;5087481;28;20093;-73
2023/04/27 03:17:57;;;;;;;0.10;0.10;;;3.70;99.90;;;;;;5086925;28;20020;-73
2023/04/27 03:20:23;;;;;;;1.10;1.10;;;3.70;99.90;;;;;;5086323;28;20472;-73
2023/04/27 03:22:48;;;;;;;0.10;0.10;;;3.60;99.90;;;;;;5089675;28;20036;-73
2023/04/27 03:25:14;;;;;;;0.08;0.08;;;3.70;99.90;;;;;;5086434;28;20020;-74
2023/04/27 03:27:42;;;;;;;0.10;0.10;;;3.60;99.90;;;;;;5086773;28;20030;-72
2023/04/27 03:30:08;;;;;;;0.10;0.10;;;3.50;99.90;;;;;;5086632;28;20085;-73
2023/04/27 03:32:34;;;;;;;0.10;0.10;;;3.50;99.90;;;;;;5087967;28;20025;-72
2023/04/27 03:35:00;;;;;;;0.10;0.10;;;3.40;99.90;;;;;;5087681;28;20089;-72
2023/04/27 03:37:26;;;;;;;0.10;0.10;;;3.40;99.90;;;;;;5088602;28;20070;-72
2023/04/27 03:39:52;;;;;;;0.10;0.10;;;3.40;99.90;;;;;;5089286;28;20032;-73
2023/04/27 03:42:18;;;;;;;0.10;0.10;;;3.40;99.90;;;;;;5089619;28;20607;-72
2023/04/27 03:44:43;;;;;;;0.13;0.13;;;3.40;99.90;;;;;;5085654;28;20048;-71
2023/04/27 03:47:09;;;;;;;0.10;0.10;;;3.40;99.90;;;;;;5088200;28;20572;-72
2023/04/27 03:49:35;;;;;;;0.10;0.10;;;3.40;99.90;;;;;;5086309;28;20020;-71
2023/04/27 03:52:02;;;;;;;0.10;0.10;;;3.30;99.90;;;;;;5088455;28;20043;-72
2023/04/27 03:54:29;;;;;;;0.10;0.10;;;3.20;99.90;;;;;;5085859;28;20044;-71
2023/04/27 03:56:55;;;;;;;0.10;0.10;;;3.20;99.90;;;;;;5088911;28;20058;-71
2023/04/27 03:59:21;;;;;;;0.10;0.10;;;3.20;99.90;;;;;;5087117;28;20016;-71
2023/04/27 04:01:47;;;;;;;0.10;0.10;;;3.20;99.90;;;;;;5086065;28;20047;-71
2023/04/27 04:04:12;;;;;;;0.10;0.10;;;3.10;99.90;;;;;;5086864;28;20020;-71
2023/04/27 04:06:38;;;;;;;0.10;0.10;;;3.10;99.90;;;;;;5083511;28;20013;-71
2023/04/27 04:09:04;;;;;;;0.10;0.10;;;3.00;99.90;;;;;;5081537;28;20711;-72
2023/04/27 04:11:30;;;;;;;0.10;0.10;;;3.00;99.90;;;;;;5081119;28;20027;-72
2023/04/27 04:13:55;;;;;;;0.17;0.17;;;3.00;99.90;;;;;;5081624;28;20020;-71
2023/04/27 04:16:21;;;;;;;0.10;0.10;;;3.00;99.90;;;;;;5082561;28;20023;-72
2023/04/27 04:18:47;;;;;;;0.15;0.15;;;3.10;99.90;;;;;;5082766;28;20030;-72
2023/04/27 04:21:13;;;;;;;0.10;0.10;;;3.00;99.90;;;;;;5085104;28;20020;-71
2023/04/27 04:23:41;;;;;;;0.10;0.10;;;3.10;99.90;;;;;;5085308;28;20035;-71
2023/04/27 04:26:07;;;;;;;0.10;0.10;;;3.20;99.90;;;;;;5083365;28;20124;-72
2023/04/27 04:28:33;;;;;;;0.20;0.20;;;3.20;99.90;;;;;;5085307;28;20111;-71
2023/04/27 04:31:03;;;;;;;0.10;0.10;;;3.20;99.90;;;;;;5085209;28;20028;-73
2023/04/27 04:33:30;;;;;;;0.10;0.10;;;3.20;99.90;;;;;;5090412;28;20544;-72
2023/04/27 04:35:56;;;;;;;0.10;0.10;;;3.20;99.90;;;;;;5087915;28;20036;-71
2023/04/27 04:38:22;;;;;;;0.20;0.20;;;3.30;99.90;;;;;;5096606;28;20024;-72
2023/04/27 04:40:49;;;;;;;0.10;0.10;;;3.30;99.90;;;;;;5093621;28;20036;-72
2023/04/27 04:43:15;;;;;;;0.10;0.10;;;3.40;99.90;;;;;;5089500;28;20689;-72
2023/04/27 04:45:41;;;;;;;0.13;0.13;;;3.40;99.90;;;;;;5092638;28;20098;-73
2023/04/27 04:48:07;;;;;;;0.20;0.20;;;3.40;99.90;;;;;;5088913;28;20056;-71
2023/04/27 04:50:34;;;;;;;0.10;0.10;;;3.40;99.90;;;;;;5088378;28;20037;-71
2023/04/27 04:53:00;;;;;;;0.10;0.10;;;3.40;99.90;;;;;;5085658;28;20047;-71
2023/04/27 04:55:29;;;;;;;0.10;0.10;;;3.50;99.90;;;;;;5086049;28;20023;-71
2023/04/27 04:57:55;;;;;;;0.15;0.15;;;3.60;99.90;;;;;;5087657;28;20019;-71
2023/04/27 05:00:21;;;;;;;0.10;0.10;;;3.60;99.90;;;;;;5089766;28;20028;-72
2023/04/27 05:02:46;;;;;;;0.20;0.20;;;3.60;99.90;;;;;;5088132;28;20028;-71
2023/04/27 05:05:13;;;;;;;0.10;0.10;;;3.60;99.90;;;;;;5088162;28;20077;-70
2023/04/27 05:07:39;;;;;;;0.10;0.10;;;3.60;99.90;;;;;;5087246;28;20048;-71
2023/04/27 05:10:05;;;;;;;0.10;0.10;;;3.60;99.90;;;;;;5090132;28;20035;-71
2023/04/27 05:12:31;;;;;;;0.20;0.20;;;3.70;99.90;;;;;;5090669;28;20020;-72
2023/04/27 05:14:56;;;;;;;0.10;0.10;;;3.80;99.90;;;;;;5093250;28;20016;-72
2023/04/27 05:17:22;;;;;;;0.10;0.10;;;3.90;99.90;;;;;;5093911;28;20024;-73
2023/04/27 05:19:48;;;;;;;0.20;0.20;;;4.30;99.90;;;;;;5088920;28;20028;-73
2023/04/27 05:22:16;;;;;;;0.10;0.10;;;4.00;99.90;;;;;;5086226;28;20032;-72
2023/04/27 05:24:42;;;;;;;0.10;0.10;;;3.90;99.90;;;;;;5085236;28;20091;-72
2023/04/27 05:27:09;;;;;;;0.10;0.10;;;4.20;99.90;;;;;;5086215;28;20533;-72
2023/04/27 05:29:36;;;;;;;0.10;0.10;;;4.30;99.90;;;;;;5086311;28;20024;-74
2023/04/27 05:32:02;;;;;;;0.10;0.10;;;4.50;99.90;;;;;;5087763;28;20021;-72
2023/04/27 05:34:27;;;;;;;0.08;0.08;;;4.60;99.90;;;;;;5083282;28;20027;-72
2023/04/27 05:36:53;;;;;;;0.10;0.10;;;4.70;99.90;;;;;;5082445;28;20016;-72
2023/04/27 05:39:19;;;;;;;62.50;57.55;;;4.80;99.90;;;;;;5080252;28;20425;-71
2023/04/27 05:41:45;;;;;;;0.10;0.10;;;5.00;99.90;;;;;;5080059;28;20027;-75
2023/04/27 05:44:12;;;;;;;0.00;0.00;;;5.20;99.90;;;;;;5079677;28;20043;-73
2023/04/27 05:46:37;;;;;;;1.45;1.45;;;5.20;99.90;;;;;;5081774;28;20023;-73
2023/04/27 05:49:03;;;;;;;0.00;0.00;;;5.40;99.90;;;;;;5079495;28;20230;-72
2023/04/27 05:51:30;;;;;;;0.00;0.00;;;5.50;99.90;;;;;;5080609;28;20676;-72
2023/04/27 05:53:55;;;;;;;0.00;0.00;;;5.60;99.90;;;;;;5079451;28;20063;-71
2023/04/27 05:56:21;;;;;;;0.00;0.00;;;6.10;99.90;;;;;;5078785;28;20024;-71
2023/04/27 05:58:48;;;;;;;0.05;0.05;;;5.80;99.90;;;;;;5078304;28;20040;-72
2023/04/27 06:01:14;;;;;;;0.00;0.00;;;5.80;99.90;;;;;;5079138;28;20058;-72
2023/04/27 06:03:39;;;;;;;0.00;0.00;;;6.00;99.90;;;;;;5077455;28;20391;-71
2023/04/27 06:06:06;;;;;;;0.00;0.00;;;6.00;99.90;;;;;;5081240;28;20024;-75
2023/04/27 06:08:33;;;;;;;0.00;0.00;;;6.20;99.90;;;;;;5089242;28;20018;-73
2023/04/27 06:10:59;;;;;;;0.00;0.00;;;6.40;99.90;;;;;;5088297;28;20529;-71
2023/04/27 06:13:25;;;;;;;1.00;1.00;;;6.40;99.90;;;;;;5086775;28;20107;-72
2023/04/27 06:15:50;;;;;;;0.03;0.03;;;6.60;99.90;;;;;;5091760;28;20784;-72
2023/04/27 06:18:16;;;;;;;0.00;0.00;;;6.80;99.90;;;;;;5088746;28;20528;-71
2023/04/27 06:20:42;;;;;;;0.52;0.52;;;6.90;99.90;;;;;;5089976;28;20048;-71
2023/04/27 06:23:08;;;;;;;0.00;0.00;;;6.90;99.90;;;;;;5086657;28;20028;-72
2023/04/27 06:25:34;;;;;;;0.00;0.00;;;7.20;99.90;;;;;;5082774;28;20078;-72
2023/04/27 06:28:00;;;;;;;0.00;0.00;;;7.20;99.90;;;;;;5084116;28;20020;-72
2023/04/27 06:30:26;;;;;;;8.65;8.20;;;7.40;99.90;;;;;;5090559;28;20026;-72
2023/04/27 06:32:52;;;;;;;0.08;0.08;;;7.40;99.90;;;;;;5083133;28;20020;-72
2023/04/27 06:35:18;;;;;;;0.10;0.10;;;7.50;99.90;;;;;;5083061;28;20035;-71
2023/04/27 06:37:44;;;;;;;0.10;0.10;;;7.60;99.90;;;;;;5085341;28;20032;-72
2023/04/27 06:40:10;;;;;;;0.00;0.00;;;7.70;99.90;;;;;;5086727;28;20023;-73
2023/04/27 06:42:36;;;;;;;0.00;0.00;;;7.80;99.90;;;;;;5087532;28;20641;-73
2023/04/27 06:45:03;;;;;;;0.00;0.00;;;8.00;99.90;;;;;;5083782;28;20032;-71
2023/04/27 06:47:29;;;;;;;0.08;0.08;;;8.00;99.90;;;;;;5086747;28;20032;-76
2023/04/27 06:49:55;;;;;;;0.10;0.10;;;;;;;;;;5089118;28;20699;-73
2023/04/27 06:52:21;;;;;;;0.00;0.00;;;8.40;99.90;;;;;;5093735;28;20043;-73
2023/04/27 06:54:47;;;;;;;0.00;0.00;;;8.50;99.90;;;;;;5091065;28;20256;-72
2023/04/27 06:57:13;;;;;;;0.00;0.00;;;8.50;99.90;;;;;;5093694;28;20016;-77
2023/04/27 06:59:39;;;;;;;0.10;0.10;;;8.50;99.90;;;;;;5095873;28;20024;-73
2023/04/27 07:02:06;;;;;;;0.10;0.10;;;8.60;99.90;;;;;;5093921;28;20028;-73
2023/04/27 07:04:32;;;;;;;0.00;0.00;;;8.70;99.90;;;;;;5096155;28;20023;-74
2023/04/27 07:06:58;;;;;;;19.20;17.90;;;8.80;99.90;;;;;;5099500;28;20047;-77
2023/04/27 07:09:23;;;;;;;0.10;0.10;;;8.90;99.90;;;;;;5089223;28;20040;-72
2023/04/27 07:11:49;;;;;;;0.10;0.10;;;9.00;99.90;;;;;;5085570;28;20027;-73
2023/04/27 07:14:15;;;;;;;0.10;0.10;;;9.00;99.90;;;;;;5085489;28;20663;-73
2023/04/27 07:16:42;;;;;;;0.10;0.10;;;9.00;99.90;;;;;;5086601;28;20024;-73
2023/04/27 07:19:09;;;;;;;0.15;0.15;;;9.10;99.90;;;;;;5088605;28;20016;-73
2023/04/27 07:21:34;;;;;;;0.10;0.10;;;9.20;99.90;;;;;;5084833;28;20039;-72
2023/04/27 07:24:00;;;;;;;0.10;0.10;;;9.20;99.90;;;;;;5084010;28;20032;-72
2023/04/27 07:26:26;;;;;;;0.63;0.63;;;9.20;99.90;;;;;;5090766;28;20020;-73
2023/04/27 07:28:52;;;;;;;0.10;0.10;;;9.20;99.90;;;;;;5082947;28;20104;-72
2023/04/27 07:31:18;;;;;;;0.10;0.10;;;9.30;99.90;;;;;;5084567;28;20028;-73
2023/04/27 07:33:43;;;;;;;0.30;0.30;;;9.40;99.90;;;;;;5086139;28;20103;-72
2023/04/27 07:36:09;;;;;;;0.10;0.10;;;9.50;99.90;;;;;;5097034;28;20038;-73
2023/04/27 07:38:37;;;;;;;0.10;0.10;;;9.60;99.90;;;;;;5092002;28;20020;-72
2023/04/27 07:41:06;;;;;;;0.10;0.10;;;9.60;99.90;;;;;;5088630;28;20031;-81
2023/04/27 07:43:32;;;;;;;0.10;0.10;;;9.80;99.90;;;;;;5087960;28;20092;-72
2023/04/27 07:45:57;;;;;;;0.20;0.20;;;10.20;99.90;;;;;;5090543;28;20043;-72
2023/04/27 07:48:24;;;;;;;0.10;0.10;;;10.50;99.90;;;;;;5087811;28;20036;-74
2023/04/27 07:50:50;;;;;;;0.10;0.10;;;10.60;99.90;;;;;;5087387;28;20024;-72
2023/04/27 07:53:16;;;;;;;0.20;0.20;;;10.60;99.90;;;;;;5091128;28;20044;-72
2023/04/27 07:55:44;;;;;;;0.20;0.20;;;10.60;99.90;;;;;;5087750;28;20024;-72
2023/04/27 07:58:10;;;;;;;0.10;0.10;;;10.70;99.90;;;;;;5086500;28;20054;-73
2023/04/27 08:00:36;;;;;;;0.20;0.20;;;10.80;99.90;;;;;;5084487;28;20478;-72
2023/04/27 08:03:02;;;;;;;0.20;0.20;;;11.00;99.90;;;;;;5085905;28;20242;-72
2023/04/27 08:05:28;;;;;;;1.77;1.67;;;11.00;99.90;;;;;;5086041;28;20036;-74
2023/04/27 08:07:53;;;;;;;0.10;0.10;;;11.20;99.90;;;;;;5084062;28;20024;-73
2023/04/27 08:10:19;;;;;;;0.82;0.82;;;11.40;99.90;;;;;;5081080;28;20248;-75
2023/04/27 08:12:45;;;;;;;0.10;0.10;;;11.60;99.90;;;;;;5079586;28;20021;-73
2023/04/27 08:15:11;;;;;;;2.15;2.05;;;11.70;99.90;;;;;;5081753;28;20024;-75
2023/04/27 08:17:39;;;;;;;0.10;0.10;;;11.50;99.90;;;;;;5087503;28;20728;-73
2023/04/27 08:20:06;;;;;;;0.25;0.25;;;11.50;99.90;;;;;;5086489;28;20047;-73
2023/04/27 08:22:32;;;;;;;0.20;0.20;;;11.50;99.90;;;;;;5084977;28;20016;-74
2023/04/27 08:24:58;;;;;;;0.15;0.15;;;11.60;99.90;;;;;;5082813;28;20406;-84
2023/04/27 08:27:24;;;;;;;0.10;0.10;;;11.80;99.90;;;;;;5080936;28;20024;-72
2023/04/27 08:29:50;;;;;;;0.20;0.20;;;12.10;99.90;;;;;;5077627;28;20032;-79
2023/04/27 08:32:16;;;;;;;0.50;0.50;;;12.30;99.90;;;;;;5079040;28;20016;-73
2023/04/27 08:34:43;;;;;;;0.20;0.20;;;12.40;97.40;;;;;;5078235;28;20626;-75
2023/04/27 08:37:10;;;;;;;0.30;0.30;;;12.60;96.80;;;;;;5079173;28;20047;-74
2023/04/27 08:39:35;;;;;;;0.20;0.20;;;12.90;96.20;;;;;;5077437;28;20103;-77
2023/04/27 08:42:10;;;;;;;0.57;0.57;;;13.00;94.40;;;;;;5078735;28;20201;-72
2023/04/27 08:44:39;;;;;;;0.30;0.30;;;13.10;94.10;;;;;;5078614;28;20016;-72
2023/04/27 08:47:04;;;;;;;0.20;0.20;;;13.10;92.40;;;;;;5078271;28;20020;-73
2023/04/27 08:49:30;;;;;;;0.20;0.20;;;13.00;93.00;;;;;;5078446;28;20742;-77
2023/04/27 08:51:56;;;;;;;0.10;0.10;;;12.90;91.50;;;;;;5080006;28;20738;-81
2023/04/27 08:54:22;;;;;;;0.10;0.10;;;12.80;91.40;;;;;;5089185;28;20644;-73
2023/04/27 08:56:47;;;;;;;0.10;0.10;;;12.50;92.20;;;;;;5086599;28;20021;-74
2023/04/27 08:59:14;;;;;;;0.17;0.17;;;12.20;92.90;;;;;;5090322;28;20680;-74
2023/04/27 09:01:45;;;;;;;0.20;0.20;;;12.20;93.90;;;;;;5088237;28;20035;-73
2023/04/27 09:04:11;;;;;;;0.20;0.20;;;11.90;95.90;;;;;;5087488;28;20020;-72
2023/04/27 09:06:37;;;;;;;0.10;0.10;;;11.90;95.80;;;;;;5085977;28;20080;-73
2023/04/27 09:09:03;;;;;;;0.20;0.20;;;11.90;93.70;;;;;;5086937;28;20149;-72
2023/04/27 09:11:37;;;;;;;0.45;0.45;;;12.00;93.40;;;;;;5080435;28;20270;-85
2023/04/27 09:14:15;;;;;;;0.10;0.10;;;12.20;93.80;;;;;;5078710;28;20100;-72
2023/04/27 09:16:42;;;;;;;0.13;0.13;;;12.40;93.20;;;;;;5078478;28;20107;-72
2023/04/27 09:19:08;;;;;;;0.17;0.17;;;12.80;91.30;;;;;;5078180;28;20032;-77
2023/04/27 09:21:33;;;;;;;0.10;0.10;;;13.10;88.50;;;;;;5078306;28;20043;-74
2023/04/27 09:24:11;;;;;;;0.10;0.10;;;13.20;88.20;;;;;;5078590;28;20125;-74
2023/04/27 09:26:38;;;;;;;0.10;0.10;;;13.40;86.00;;;;;;5078562;28;20327;-73
2023/04/27 09:29:03;;;;;;;0.10;0.10;;;13.50;83.80;;;;;;5079842;28;20023;-75
2023/04/27 09:31:34;;;;;;;0.10;0.10;;;13.50;85.40;;;;;;5078850;28;20099;-72
2023/04/27 09:34:00;;;;;;;0.30;0.30;;;13.40;83.20;;;;;;5078193;28;20024;-73
2023/04/27 09:36:25;;;;;;;0.32;0.32;;;13.30;81.00;;;;;;5077488;28;20212;-73
2023/04/27 09:38:52;;;;;;;0.20;0.20;;;13.40;81.20;;;;;;5077858;28;20016;-73
2023/04/27 09:41:18;;;;;;;1.05;1.02;;;13.30;79.90;;;;;;5077752;28;20074;-72
2023/04/27 09:43:46;;;;;;;0.10;0.10;;;13.30;80.20;;;;;;5075791;28;20129;-74
2023/04/27 09:46:12;;;;;;;0.20;0.20;;;13.20;80.60;;;;;;5076826;28;20359;-72
2023/04/27 09:48:39;;;;;;;0.20;0.20;;;13.00;79.10;;;;;;5077023;28;20089;-73
2023/04/27 09:51:06;;;;;;;0.15;0.15;;;13.20;80.20;;;;;;5077266;28;20036;-72
2023/04/27 09:53:35;;;;;;;0.10;0.10;;;13.30;80.60;;;;;;5076710;28;20051;-72
2023/04/27 09:56:27;;;;;;;0.10;0.10;;;13.50;80.60;;;;;;5077680;28;20102;-73
2023/04/27 09:59:16;;;;;;;1.55;1.45;;;13.80;80.30;;;;;;5075893;28;20035;-75
2023/04/27 10:01:47;;;;;;;0.45;0.45;;;14.00;78.00;;;;;;5077660;28;20327;-81
2023/04/27 10:04:34;;;;;;;0.20;0.20;;;14.10;78.30;;;;;;5077915;28;20497;-75
2023/04/27 10:07:03;;;;;;;0.10;0.10;;;14.40;76.90;;;;;;5077728;28;20016;-83
2023/04/27 10:09:41;;;;;;;0.10;0.10;;;14.70;76.50;;;;;;5076034;28;20081;-74
2023/04/27 10:12:27;;;;;;;0.10;0.10;;;15.00;74.70;;;;;;5076911;28;20208;-73
2023/04/27 10:14:58;;;;;;;0.20;0.20;;;15.10;72.30;;;;;;5076775;28;20229;-73
2023/04/27 10:17:32;;;;;;;0.10;0.10;;;14.70;72.50;;;;;;5076682;28;20020;-73
2023/04/27 10:20:00;;;;;;;0.10;0.10;;;15.00;73.10;;;;;;5077524;28;20032;-73
2023/04/27 10:22:40;;;;;;;0.30;0.30;;;15.10;73.00;;;;;;5076912;28;20094;-73
2023/04/27 10:25:21;;;;;;;0.20;0.20;;;15.10;75.70;;;;;;5078017;28;20046;-77
2023/04/27 10:27:54;;;;;;;0.10;0.10;;;15.20;73.60;;;;;;5079439;28;20191;-76
2023/04/27 10:30:22;;;;;;;0.10;0.10;;;15.20;73.00;;;;;;5077763;28;20330;-75
2023/04/27 10:32:58;;;;;;;0.10;0.10;;;15.50;72.50;;;;;;5077224;28;20250;-78
2023/04/27 10:35:41;;;;;;;0.10;0.10;;;15.90;71.20;;;;;;5079498;28;20070;-77
2023/04/27 10:38:16;;;;;;;0.20;0.20;;;16.10;69.50;;;;;;5081400;28;20059;-77
2023/04/27 10:40:56;;;;;;;0.10;0.10;;;16.10;70.00;;;;;;5081668;28;20277;-76
2023/04/27 10:43:26;;;;;;;0.10;0.10;;;16.00;68.90;;;;;;5081046;28;20345;-79
2023/04/27 10:45:52;;;;;;;0.10;0.10;;;16.30;69.20;;;;;;5079425;28;20033;-73
2023/04/27 10:48:18;;;;;;;0.10;0.10;;;16.40;68.80;;;;;;5079588;28;20265;-82
2023/04/27 10:50:45;;;;;;;0.10;0.10;;;16.40;66.60;;;;;;5080856;28;20353;-84
2023/04/27 10:53:13;;;;;;;0.20;0.20;;;16.20;64.80;;;;;;5079571;28;20044;-77
2023/04/27 10:55:39;;;;;;;0.17;0.17;;;15.50;65.70;;;;;;5080681;28;20035;-72
2023/04/27 10:58:05;;;;;;;0.10;0.10;;;15.30;67.80;;;;;;5079191;28;20528;-72
2023/04/27 11:00:42;;;;;;;0.10;0.10;;;15.50;65.50;;;;;;5080073;28;20036;-72
2023/04/27 11:03:10;;;;;;;0.55;0.55;;;15.90;65.70;;;;;;5080125;28;20209;-72
2023/04/27 11:05:36;;;;;;;0.20;0.20;;;16.10;66.30;;;;;;5080469;28;20028;-72
2023/04/27 11:08:09;;;;;;;0.10;0.10;;;16.30;66.90;;;;;;5080554;28;20033;-75
2023/04/27 11:10:42;;;;;;;0.15;0.15;;;16.30;64.60;;;;;;5080260;28;20055;-72
2023/04/27 11:13:13;;;;;;;0.20;0.20;;;16.10;62.90;;;;;;5080056;28;20046;-72
2023/04/27 11:15:54;;;;;;;0.10;0.10;;;16.10;62.60;;;;;;5080448;28;20047;-75
2023/04/27 11:18:21;;;;;;;0.10;0.10;;;16.70;64.20;;;;;;5080221;28;20024;-71
2023/04/27 11:20:49;;;;;;;0.13;0.13;;;17.30;61.80;;;;;;5080124;28;20070;-72
2023/04/27 11:23:42;;;;;;;0.10;0.10;;;17.30;61.20;;;;;;5080140;28;20231;-80
2023/04/27 11:26:20;;;;;;;0.10;0.10;;;17.40;59.70;;;;;;5077416;28;20670;-80
2023/04/27 11:29:00;;;;;;;0.13;0.13;;;17.70;59.00;;;;;;5080057;28;20509;-80
2023/04/27 11:31:37;;;;;;;0.10;0.10;;;18.10;58.60;;;;;;5079802;28;20024;-84
2023/04/27 11:34:03;;;;;;;0.10;0.10;;;18.60;59.80;;;;;;5080038;28;20025;-74
2023/04/27 11:36:28;;;;;;;0.10;0.10;;;18.90;57.80;;;;;;5080197;28;20672;-77
2023/04/27 11:38:58;;;;;;;0.10;0.10;;;19.00;60.10;;;;;;5080013;28;20020;-79
2023/04/27 11:41:33;;;;;;;0.10;0.10;;;19.30;56.70;;;;;;5078007;28;20032;-75
2023/04/27 11:44:07;;;;;;;0.20;0.20;;;19.80;55.90;;;;;;5079689;28;20099;-80
2023/04/27 11:46:35;;;;;;;;;;;20.00;54.70;;;;;;5077209;28;20525;-75
2023/04/27 11:49:05;;;;;;;0.10;0.10;;;19.70;55.40;;;;;;5077999;28;19915;-75
2023/04/27 11:51:32;;;;;;;0.10;0.10;;;20.30;55.80;;;;;;5079285;28;20249;-72
2023/04/27 11:54:02;;;;;;;0.10;0.10;;;20.30;53.70;;;;;;5079225;28;20065;-72
2023/04/27 11:56:37;;;;;;;0.10;0.10;;;20.20;53.30;;;;;;5079537;28;20020;-77
2023/04/27 11:59:04;;;;;;;0.10;0.10;;;20.30;53.50;;;;;;5078023;28;20078;-79
2023/04/27 12:01:32;;;;;;;0.10;0.10;;;20.50;53.60;;;;;;5078289;28;20024;-78
2023/04/27 12:03:58;;;;;;;0.10;0.10;;;20.90;53.90;;;;;;5079528;28;20024;-75
2023/04/27 12:06:25;;;;;;;0.10;0.10;;;20.10;53.90;;;;;;5079807;28;20111;-72
2023/04/27 12:08:51;;;;;;;0.10;0.10;;;20.10;54.30;;;;;;5080278;28;20177;-79
2023/04/27 12:11:17;;;;;;;0.10;0.10;;;20.20;58.20;;;;;;5079857;28;20024;-73
2023/04/27 12:13:43;;;;;;;0.10;0.10;;;20.50;54.60;;;;;;5079625;28;20105;-72
2023/04/27 12:16:09;;;;;;;0.13;0.13;;;20.20;54.10;;;;;;5078518;28;20066;-73
2023/04/27 12:18:34;;;;;;;0.10;0.10;;;20.50;53.70;;;;;;5079855;28;20691;-85
2023/04/27 12:21:00;;;;;;;0.10;0.10;;;20.40;53.10;;;;;;5077885;28;20048;-73
2023/04/27 12:23:26;;;;;;;0.10;0.10;;;20.30;53.10;;;;;;5079307;28;20024;-72
2023/04/27 12:25:52;;;;;;;0.10;0.10;;;21.00;55.30;;;;;;5079533;28;20125;-80
2023/04/27 12:28:19;;;;;;;2.63;2.40;;;21.70;51.30;;;;;;5080783;28;20105;-73
2023/04/27 12:30:45;;;;;;;0.00;0.00;;;22.00;51.90;;;;;;5080085;28;20013;-73
2023/04/27 12:33:10;;;;;;;2.95;2.35;;;22.70;49.30;;;;;;5080085;28;20036;-78
2023/04/27 12:35:36;;;;;;;0.10;0.10;;;23.10;50.00;;;;;;5080227;28;20510;-73
2023/04/27 12:38:02;;;;;;;0.10;0.10;;;22.60;50.70;;;;;;5080262;28;20085;-86
2023/04/27 12:40:28;;;;;;;0.20;0.20;;;22.00;50.50;;;;;;5079651;28;20024;-76
2023/04/27 12:42:54;;;;;;;0.10;0.10;;;21.30;51.70;;;;;;5079495;28;20016;-71
2023/04/27 12:45:20;;;;;;;0.10;0.10;;;20.70;52.60;;;;;;5079233;28;20529;-84
2023/04/27 12:47:46;;;;;;;0.28;0.25;;;20.30;52.90;;;;;;5079770;28;20672;-71
2023/04/27 12:50:14;;;;;;;0.20;0.20;;;20.40;53.30;;;;;;5079686;28;20027;-79
2023/04/27 12:52:40;;;;;;;0.10;0.10;;;21.00;53.60;;;;;;5079257;28;20004;-81